createdAt,value
2019-03-06T00:00:42.792Z,4.0
2019-03-06T00:01:42.781Z,3.7
2019-03-06T00:02:42.775Z,3.9
2019-03-06T00:03:42.782Z,3.5
2019-03-06T00:04:42.747Z,3.5
2019-03-06T00:05:42.733Z,3.7
2019-03-06T00:06:42.722Z,3.5
2019-03-06T00:07:42.711Z,4.0
2019-03-06T00:08:42.700Z,4.0
2019-03-06T00:09:42.690Z,3.7
2019-03-06T00:10:42.682Z,3.7
2019-03-06T00:11:42.665Z,3.7
2019-03-06T00:12:42.654Z,4.0
2019-03-06T00:13:42.642Z,4.0
2019-03-06T00:14:42.632Z,3.7
2019-03-06T00:15:42.619Z,3.5
2019-03-06T00:16:42.607Z,3.7
2019-03-06T00:17:42.596Z,4.0
2019-03-06T00:18:42.591Z,3.7
2019-03-06T00:19:42.574Z,3.5
2019-03-06T00:20:42.574Z,4.0
2019-03-06T00:21:42.571Z,3.9
2019-03-06T00:22:42.576Z,4.0
2019-03-06T00:23:42.578Z,3.9
2019-03-06T00:24:42.527Z,3.4
2019-03-06T00:25:42.520Z,3.9
2019-03-06T00:26:42.522Z,3.9
2019-03-06T00:27:42.529Z,3.9
2019-03-06T00:28:42.469Z,4.5
2019-03-06T00:29:42.466Z,4.4
2019-03-06T00:30:42.450Z,4.3
2019-03-06T00:31:42.435Z,4.6
2019-03-06T00:32:42.424Z,3.5
2019-03-06T00:33:42.414Z,4.0
2019-03-06T00:34:42.408Z,3.7
2019-03-06T00:35:42.388Z,3.7
2019-03-06T00:36:42.378Z,3.7
2019-03-06T00:37:42.374Z,3.9
2019-03-06T00:38:42.356Z,4.0
2019-03-06T00:39:42.342Z,3.9
2019-03-06T00:40:42.335Z,4.0
2019-03-06T00:41:42.321Z,3.9
2019-03-06T00:42:42.311Z,3.9
2019-03-06T00:43:42.302Z,4.0
2019-03-06T00:44:42.292Z,4.3
2019-03-06T00:45:42.272Z,4.3
2019-03-06T00:46:42.263Z,3.5
2019-03-06T00:47:42.252Z,3.5
2019-03-06T00:48:42.238Z,4.0
2019-03-06T00:49:42.233Z,4.4
2019-03-06T00:50:42.217Z,4.0
2019-03-06T00:51:42.211Z,4.1
2019-03-06T00:52:42.193Z,4.1
2019-03-06T00:53:42.180Z,4.1
2019-03-06T00:54:42.169Z,4.3
2019-03-06T00:55:42.158Z,3.7
2019-03-06T00:56:42.149Z,4.0
2019-03-06T00:57:42.141Z,3.7
2019-03-06T00:58:42.125Z,3.7
2019-03-06T00:59:42.113Z,4.0
2019-03-06T01:00:42.102Z,4.3
2019-03-06T01:01:42.093Z,3.9
2019-03-06T01:02:42.079Z,3.9
2019-03-06T01:03:42.067Z,4.4
2019-03-06T01:04:42.057Z,3.7
2019-03-06T01:05:42.043Z,3.5
2019-03-06T01:06:42.037Z,3.9
2019-03-06T01:07:42.045Z,3.7
2019-03-06T01:08:42.019Z,3.7
2019-03-06T01:09:41.999Z,3.7
2019-03-06T01:10:41.987Z,4.3
2019-03-06T01:11:41.982Z,4.0
2019-03-06T01:12:41.963Z,3.7
2019-03-06T01:13:41.953Z,4.0
2019-03-06T01:14:41.939Z,3.7
2019-03-06T01:15:41.934Z,4.0
2019-03-06T01:16:41.924Z,3.5
2019-03-06T01:17:41.908Z,4.0
2019-03-06T01:18:41.894Z,3.4
2019-03-06T01:19:41.888Z,3.4
2019-03-06T01:20:41.877Z,3.4
2019-03-06T01:21:41.861Z,3.5
2019-03-06T01:22:41.850Z,4.1
2019-03-06T01:23:41.837Z,3.5
2019-03-06T01:24:41.830Z,3.7
2019-03-06T01:25:41.819Z,3.7
2019-03-06T01:26:41.804Z,3.7
2019-03-06T01:27:41.791Z,4.0
2019-03-06T01:28:41.786Z,4.4
2019-03-06T01:29:41.772Z,4.3
2019-03-06T01:30:41.757Z,4.0
2019-03-06T01:31:41.748Z,3.9
2019-03-06T01:32:41.737Z,4.0
2019-03-06T01:33:41.722Z,4.0
2019-03-06T01:34:41.714Z,3.9
2019-03-06T01:35:41.702Z,4.0
2019-03-06T01:36:41.694Z,4.3
2019-03-06T01:37:41.676Z,3.9
2019-03-06T01:38:41.665Z,4.0
2019-03-06T01:39:41.663Z,4.8
2019-03-06T01:40:41.642Z,4.4
2019-03-06T01:41:41.638Z,3.7
2019-03-06T01:42:41.619Z,4.3
2019-03-06T01:43:41.612Z,4.3
2019-03-06T01:44:41.595Z,4.0
2019-03-06T01:45:41.583Z,4.0
2019-03-06T01:46:41.573Z,4.3
2019-03-06T01:47:41.569Z,4.3
2019-03-06T01:48:41.558Z,4.6
2019-03-06T01:49:41.539Z,4.6
2019-03-06T01:50:41.530Z,4.5
2019-03-06T01:51:41.521Z,4.4
2019-03-06T01:52:41.512Z,4.0
2019-03-06T01:53:41.493Z,4.5
2019-03-06T01:54:41.483Z,4.4
2019-03-06T01:55:41.470Z,4.8
2019-03-06T01:56:41.466Z,4.4
2019-03-06T01:57:41.446Z,4.9
2019-03-06T01:58:41.440Z,4.6
2019-03-06T01:59:41.423Z,4.6
2019-03-06T02:00:41.417Z,4.9
2019-03-06T02:01:41.401Z,4.5
2019-03-06T02:02:41.390Z,4.8
2019-03-06T02:03:41.378Z,4.5
2019-03-06T02:04:41.372Z,5.0
2019-03-06T02:05:41.352Z,4.5
2019-03-06T02:06:41.340Z,4.8
2019-03-06T02:07:41.332Z,5.0
2019-03-06T02:08:41.321Z,4.9
2019-03-06T02:09:41.309Z,5.0
2019-03-06T02:10:41.636Z,4.9
2019-03-06T02:11:41.289Z,4.8
2019-03-06T02:12:41.280Z,4.8
2019-03-06T02:13:41.262Z,4.6
2019-03-06T02:14:41.249Z,5.4
2019-03-06T02:15:41.244Z,4.4
2019-03-06T02:16:41.228Z,4.9
2019-03-06T02:17:41.215Z,5.0
2019-03-06T02:18:41.204Z,4.6
2019-03-06T02:19:41.193Z,5.1
2019-03-06T02:20:41.201Z,5.0
2019-03-06T02:21:41.183Z,5.5
2019-03-06T02:22:41.173Z,4.9
2019-03-06T02:23:41.148Z,5.0
2019-03-06T02:24:41.138Z,5.5
2019-03-06T02:25:41.122Z,5.0
2019-03-06T02:26:41.118Z,5.0
2019-03-06T02:27:41.102Z,4.6
2019-03-06T02:28:41.088Z,4.9
2019-03-06T02:29:41.085Z,5.0
2019-03-06T02:30:41.075Z,5.3
2019-03-06T02:31:41.059Z,5.3
2019-03-06T02:32:41.047Z,5.0
2019-03-06T02:33:41.035Z,5.5
2019-03-06T02:34:41.019Z,5.5
2019-03-06T02:35:41.011Z,4.9
2019-03-06T02:36:41.003Z,5.8
2019-03-06T02:37:40.991Z,5.0
2019-03-06T02:38:40.978Z,5.4
2019-03-06T02:39:40.964Z,5.6
2019-03-06T02:40:40.955Z,5.0
2019-03-06T02:41:40.947Z,5.5
2019-03-06T02:42:40.928Z,4.9
2019-03-06T02:43:40.927Z,5.1
2019-03-06T02:44:40.909Z,5.8
2019-03-06T02:45:40.893Z,5.0
2019-03-06T02:46:40.889Z,5.4
2019-03-06T02:47:40.882Z,5.9
2019-03-06T02:48:40.858Z,5.9
2019-03-06T02:49:40.850Z,5.6
2019-03-06T02:50:40.842Z,5.9
2019-03-06T02:51:40.835Z,5.0
2019-03-06T02:52:40.814Z,5.6
2019-03-06T02:53:40.802Z,5.1
2019-03-06T02:54:40.790Z,4.8
2019-03-06T02:55:40.780Z,5.4
2019-03-06T02:56:40.769Z,5.5
2019-03-06T02:57:40.771Z,5.0
2019-03-06T02:58:40.751Z,6.0
2019-03-06T02:59:40.735Z,5.3
2019-03-06T03:00:40.722Z,5.0
2019-03-06T03:01:40.710Z,5.4
2019-03-06T03:02:40.698Z,5.5
2019-03-06T03:03:40.689Z,5.4
2019-03-06T03:04:40.675Z,5.6
2019-03-06T03:05:40.663Z,5.5
2019-03-06T03:06:40.656Z,5.5
2019-03-06T03:07:40.642Z,5.0
2019-03-06T03:08:40.631Z,4.9
2019-03-06T03:09:40.647Z,5.5
2019-03-06T03:10:40.608Z,5.1
2019-03-06T03:11:40.596Z,5.0
2019-03-06T03:12:40.590Z,5.9
2019-03-06T03:13:40.579Z,5.5
2019-03-06T03:14:40.561Z,5.4
2019-03-06T03:15:40.551Z,5.9
2019-03-06T03:16:40.548Z,5.8
2019-03-06T03:17:40.528Z,5.8
2019-03-06T03:18:40.535Z,5.8
2019-03-06T03:19:40.513Z,5.8
2019-03-06T03:20:40.517Z,5.1
2019-03-06T03:21:40.483Z,5.6
2019-03-06T03:22:40.472Z,5.0
2019-03-06T03:23:40.461Z,5.9
2019-03-06T03:24:40.449Z,5.6
2019-03-06T03:25:40.468Z,5.5
2019-03-06T03:26:40.427Z,5.1
2019-03-06T03:27:40.418Z,5.5
2019-03-06T03:28:40.408Z,5.8
2019-03-06T03:29:40.402Z,5.6
2019-03-06T03:30:40.381Z,5.5
2019-03-06T03:31:40.394Z,5.3
2019-03-06T03:32:40.510Z,5.9
2019-03-06T03:33:40.348Z,5.5
2019-03-06T03:34:40.341Z,6.0
2019-03-06T03:35:40.376Z,5.6
2019-03-06T03:36:40.316Z,6.0
2019-03-06T03:37:40.302Z,5.6
2019-03-06T03:38:40.290Z,5.9
2019-03-06T03:39:40.287Z,5.4
2019-03-06T03:40:40.273Z,5.5
2019-03-06T03:41:40.256Z,5.5
2019-03-06T03:42:40.247Z,6.1
2019-03-06T03:43:40.239Z,5.4
2019-03-06T03:44:40.226Z,5.6
2019-03-06T03:45:40.221Z,5.6
2019-03-06T03:46:40.201Z,6.0
2019-03-06T03:47:40.190Z,5.9
2019-03-06T03:48:40.183Z,5.8
2019-03-06T03:49:40.170Z,5.5
2019-03-06T03:50:40.158Z,6.5
2019-03-06T03:51:40.150Z,6.0
2019-03-06T03:52:40.146Z,6.1
2019-03-06T03:53:40.125Z,6.0
2019-03-06T03:54:40.116Z,5.6
2019-03-06T03:55:40.099Z,5.6
2019-03-06T03:56:40.087Z,5.3
2019-03-06T03:57:40.081Z,5.5
2019-03-06T03:58:40.065Z,5.9
2019-03-06T03:59:40.056Z,5.9
2019-03-06T04:00:40.042Z,5.0
2019-03-06T04:01:40.030Z,5.4
2019-03-06T04:02:40.021Z,5.5
2019-03-06T04:03:40.013Z,5.6
2019-03-06T04:04:39.998Z,5.5
2019-03-06T04:05:39.987Z,5.3
2019-03-06T04:06:39.983Z,5.4
2019-03-06T04:07:39.962Z,5.9
2019-03-06T04:08:39.957Z,5.8
2019-03-06T04:09:39.940Z,5.3
2019-03-06T04:10:39.933Z,5.5
2019-03-06T04:11:39.917Z,5.4
2019-03-06T04:12:39.908Z,5.9
2019-03-06T04:13:39.900Z,5.6
2019-03-06T04:14:39.894Z,5.4
2019-03-06T04:15:39.882Z,5.1
2019-03-06T04:16:39.859Z,6.1
2019-03-06T04:17:39.848Z,5.8
2019-03-06T04:18:39.837Z,5.8
2019-03-06T04:19:39.827Z,5.4
2019-03-06T04:20:39.813Z,5.1
2019-03-06T04:21:39.805Z,5.9
2019-03-06T04:22:39.800Z,5.8
2019-03-06T04:23:39.782Z,5.1
2019-03-06T04:24:39.768Z,4.9
2019-03-06T04:25:39.765Z,5.6
2019-03-06T04:26:39.753Z,5.5
2019-03-06T04:27:39.740Z,5.3
2019-03-06T04:28:39.720Z,5.3
2019-03-06T04:29:39.710Z,5.3
2019-03-06T04:30:39.700Z,5.0
2019-03-06T04:31:39.692Z,5.9
2019-03-06T04:32:39.691Z,5.0
2019-03-06T04:33:39.664Z,5.4
2019-03-06T04:34:39.654Z,5.6
2019-03-06T04:35:39.645Z,6.0
2019-03-06T04:36:39.662Z,5.5
2019-03-06T04:37:39.622Z,5.9
2019-03-06T04:38:39.611Z,5.5
2019-03-06T04:39:39.597Z,5.0
2019-03-06T04:40:39.589Z,5.6
2019-03-06T04:41:39.574Z,4.8
2019-03-06T04:42:39.561Z,5.0
2019-03-06T04:43:39.560Z,5.3
2019-03-06T04:44:39.545Z,5.0
2019-03-06T04:45:39.528Z,5.5
2019-03-06T04:46:39.518Z,5.6
2019-03-06T04:47:39.505Z,5.0
2019-03-06T04:48:39.500Z,5.5
2019-03-06T04:49:39.482Z,5.1
2019-03-06T04:50:39.474Z,5.3
2019-03-06T04:51:39.460Z,5.9
2019-03-06T04:52:39.456Z,5.5
2019-03-06T04:53:39.437Z,5.1
2019-03-06T04:54:39.426Z,5.5
2019-03-06T04:55:39.414Z,5.4
2019-03-06T04:56:39.405Z,6.0
2019-03-06T04:57:39.393Z,5.5
2019-03-06T04:58:39.379Z,5.6
2019-03-06T04:59:39.372Z,5.3
2019-03-06T05:00:39.359Z,5.8
2019-03-06T05:01:39.348Z,5.6
2019-03-06T05:02:39.335Z,5.5
2019-03-06T05:03:39.331Z,5.5
2019-03-06T05:04:39.313Z,5.6
2019-03-06T05:05:39.303Z,5.1
2019-03-06T05:06:39.304Z,5.9
2019-03-06T05:07:39.279Z,5.30
2019-03-06T05:08:39.270Z,6.19
2019-03-06T05:09:39.273Z,5.69
2019-03-06T05:10:39.249Z,5.59
2019-03-06T05:11:39.234Z,5.69
2019-03-06T05:12:39.224Z,5.3
2019-03-06T05:13:39.213Z,5.5
2019-03-06T05:14:39.202Z,5.50
2019-03-06T05:15:39.192Z,5.40
2019-03-06T05:16:39.179Z,5.59
2019-03-06T05:17:39.169Z,5.59
2019-03-06T05:18:40.428Z,5.30
2019-03-06T05:19:39.159Z,5.40
2019-03-06T05:20:39.132Z,5.80
2019-03-06T05:21:39.127Z,5.80
2019-03-06T05:22:39.113Z,5.19
2019-03-06T05:23:39.111Z,6.00
2019-03-06T05:24:39.089Z,5.69
2019-03-06T05:25:39.132Z,6.19
2019-03-06T05:26:39.065Z,5.69
2019-03-06T05:27:39.056Z,5.90
2019-03-06T05:28:39.044Z,5.90
2019-03-06T05:29:39.042Z,5.59
2019-03-06T05:30:39.024Z,6.09
2019-03-06T05:31:39.010Z,5.69
2019-03-06T05:32:39.003Z,5.90
2019-03-06T05:33:39.038Z,5.80
2019-03-06T05:34:38.976Z,6.09
2019-03-06T05:35:38.970Z,6.00
2019-03-06T05:36:38.960Z,6.19
2019-03-06T05:37:38.944Z,5.90
2019-03-06T05:38:38.936Z,6.30
2019-03-06T05:39:38.921Z,6.69
2019-03-06T05:40:38.936Z,6.19
2019-03-06T05:41:38.904Z,6.40
2019-03-06T05:42:38.923Z,6.09
2019-03-06T05:43:38.877Z,6.40
2019-03-06T05:44:38.871Z,6.69
2019-03-06T05:45:38.854Z,6.50
2019-03-06T05:46:38.846Z,6.50
2019-03-06T05:47:38.841Z,6.30
2019-03-06T05:48:38.821Z,6.59
2019-03-06T05:49:38.814Z,6.30
2019-03-06T05:50:38.799Z,7.40
2019-03-06T05:51:38.790Z,6.80
2019-03-06T05:52:38.779Z,6.80
2019-03-06T05:53:38.766Z,6.30
2019-03-06T05:54:38.763Z,7.90
2019-03-06T05:55:38.743Z,7.00
2019-03-06T05:56:38.732Z,6.90
2019-03-06T05:57:38.728Z,6.30
2019-03-06T05:58:38.712Z,7.59
2019-03-06T05:59:38.727Z,7.59
2019-03-06T06:00:38.716Z,7.09
2019-03-06T06:01:38.726Z,7.19
2019-03-06T06:02:38.721Z,7.19
2019-03-06T06:03:38.660Z,7.30
2019-03-06T06:04:38.665Z,7.40
2019-03-06T06:05:38.668Z,7.59
2019-03-06T06:06:38.670Z,7.09
2019-03-06T06:07:38.610Z,7.09
2019-03-06T06:08:38.605Z,7.50
2019-03-06T06:09:38.588Z,7.90
2019-03-06T06:10:38.576Z,7.09
2019-03-06T06:11:38.569Z,7.59
2019-03-06T06:12:38.557Z,7.40
2019-03-06T06:13:38.553Z,6.80
2019-03-06T06:14:38.577Z,6.90
2019-03-06T06:15:38.523Z,7.00
2019-03-06T06:16:38.512Z,6.80
2019-03-06T06:17:38.499Z,7.00
2019-03-06T06:18:38.493Z,6.90
2019-03-06T06:19:38.480Z,6.90
2019-03-06T06:20:38.465Z,6.69
2019-03-06T06:21:38.458Z,6.80
2019-03-06T06:22:38.446Z,7.09
2019-03-06T06:23:38.435Z,6.50
2019-03-06T06:24:38.430Z,7.00
2019-03-06T06:25:38.410Z,6.90
2019-03-06T06:26:38.399Z,6.80
2019-03-06T06:27:38.388Z,6.80
2019-03-06T06:28:38.376Z,6.80
2019-03-06T06:29:38.374Z,6.90
2019-03-06T06:30:38.359Z,6.80
2019-03-06T06:31:38.350Z,6.59
2019-03-06T06:32:38.333Z,6.59
2019-03-06T06:33:38.320Z,6.40
2019-03-06T06:34:38.307Z,6.90
2019-03-06T06:35:38.299Z,6.09
2019-03-06T06:36:38.291Z,6.40
2019-03-06T06:37:38.276Z,6.09
2019-03-06T06:38:38.267Z,6.40
2019-03-06T06:39:38.257Z,6.80
2019-03-06T06:40:38.243Z,6.40
2019-03-06T06:41:38.266Z,6.69
2019-03-06T06:42:38.227Z,6.50
2019-03-06T06:43:38.222Z,6.30
2019-03-06T06:44:38.196Z,6.50
2019-03-06T06:45:38.185Z,6.90
2019-03-06T06:46:38.180Z,7.19
2019-03-06T06:47:38.163Z,6.40
2019-03-06T06:48:38.149Z,7.19
2019-03-06T06:49:38.141Z,6.80
2019-03-06T06:50:38.129Z,6.90
2019-03-06T06:51:38.116Z,6.40
2019-03-06T06:52:38.107Z,6.69
2019-03-06T06:53:38.095Z,6.30
2019-03-06T06:54:38.085Z,7.00
2019-03-06T06:55:38.075Z,7.00
2019-03-06T06:56:38.060Z,6.00
2019-03-06T06:57:38.049Z,6.30
2019-03-06T06:58:38.044Z,6.40
2019-03-06T06:59:38.026Z,6.40
2019-03-06T07:00:38.013Z,6.09
2019-03-06T07:01:38.007Z,6.40
2019-03-06T07:02:37.990Z,6.69
2019-03-06T07:03:37.979Z,7.09
2019-03-06T07:04:37.971Z,6.30
2019-03-06T07:05:37.961Z,6.80
2019-03-06T07:06:37.943Z,7.19
2019-03-06T07:07:37.938Z,6.80
2019-03-06T07:08:37.927Z,6.59
2019-03-06T07:09:37.912Z,11.69
2019-03-06T07:10:37.898Z,11.00
2019-03-06T07:11:37.890Z,7.69
2019-03-06T07:12:37.882Z,10.00
2019-03-06T07:13:37.870Z,7.00
2019-03-06T07:14:37.858Z,6.40
2019-03-06T07:15:37.849Z,7.30
2019-03-06T07:16:37.837Z,5.90
2019-03-06T07:17:37.828Z,6.40
2019-03-06T07:18:37.812Z,6.09
2019-03-06T07:19:37.798Z,6.19
2019-03-06T07:20:37.789Z,6.19
2019-03-06T07:21:37.777Z,6.00
2019-03-06T07:22:37.769Z,6.19
2019-03-06T07:23:37.767Z,6.19
2019-03-06T07:24:37.752Z,5.59
2019-03-06T07:25:37.730Z,5.19
2019-03-06T07:26:37.728Z,5.19
2019-03-06T07:27:37.716Z,5.19
2019-03-06T07:28:37.697Z,5.40
2019-03-06T07:29:37.689Z,5.59
2019-03-06T07:30:37.675Z,5.00
2019-03-06T07:31:37.662Z,5.40
2019-03-06T07:32:37.654Z,5.19
2019-03-06T07:33:37.642Z,5.40
2019-03-06T07:34:37.630Z,5.40
2019-03-06T07:35:37.629Z,5.80
2019-03-06T07:36:37.607Z,5.90
2019-03-06T07:37:37.596Z,5.40
2019-03-06T07:38:37.585Z,5.90
2019-03-06T07:39:37.573Z,5.80
2019-03-06T07:40:37.564Z,5.69
2019-03-06T07:41:37.551Z,5.59
2019-03-06T07:42:37.538Z,5.09
2019-03-06T07:43:37.531Z,5.19
2019-03-06T07:44:37.516Z,5.00
2019-03-06T07:45:37.513Z,5.59
2019-03-06T07:46:37.497Z,5.30
2019-03-06T07:47:37.483Z,4.69
2019-03-06T07:48:37.472Z,3.40
2019-03-06T07:49:44.660Z,5.50
2019-03-06T07:51:01.935Z,5.00
2019-03-06T07:52:01.920Z,5.40
2019-03-06T07:53:01.907Z,5.40
2019-03-06T07:54:01.898Z,5.00
2019-03-06T07:55:01.887Z,5.09
2019-03-06T07:56:01.874Z,5.50
2019-03-06T07:57:01.867Z,5.80
2019-03-06T07:58:01.851Z,6.19
2019-03-06T07:59:01.843Z,5.59
2019-03-06T08:00:01.834Z,5.40
2019-03-06T08:01:01.819Z,4.90
2019-03-06T08:02:01.807Z,4.50
2019-03-06T08:03:01.791Z,4.69
2019-03-06T08:04:01.813Z,4.59
2019-03-06T08:05:01.775Z,4.90
2019-03-06T08:06:01.760Z,6.19
2019-03-06T08:07:01.744Z,4.69
2019-03-06T08:08:01.734Z,4.69
2019-03-06T08:09:01.720Z,5.69
2019-03-06T08:10:01.709Z,5.19
2019-03-06T08:11:01.704Z,5.19
2019-03-06T08:12:01.685Z,4.90
2019-03-06T08:13:01.673Z,5.00
2019-03-06T08:14:01.668Z,4.19
2019-03-06T08:15:01.672Z,3.79
2019-03-06T08:16:01.643Z,4.69
2019-03-06T08:17:01.630Z,4.19
2019-03-06T08:18:01.617Z,4.59
2019-03-06T08:19:01.607Z,5.00
2019-03-06T08:20:01.596Z,4.40
2019-03-06T08:21:01.600Z,4.59
2019-03-06T08:22:01.579Z,4.40
2019-03-06T08:23:01.563Z,5.00
2019-03-06T08:24:01.552Z,4.19
2019-03-06T08:25:01.547Z,4.69
2019-03-06T08:26:01.534Z,4.09
2019-03-06T08:27:01.517Z,5.40
2019-03-06T08:28:01.507Z,5.69
2019-03-06T08:29:01.502Z,4.69
2019-03-06T08:30:01.482Z,6.69
2019-03-06T08:31:01.477Z,4.90
2019-03-06T08:32:01.460Z,5.00
2019-03-06T08:33:01.454Z,4.50
2019-03-06T08:34:01.437Z,4.40
2019-03-06T08:35:01.430Z,4.69
2019-03-06T08:36:01.414Z,4.59
2019-03-06T08:37:01.403Z,4.69
2019-03-06T08:38:01.391Z,4.90
2019-03-06T08:39:01.381Z,4.59
2019-03-06T08:40:01.379Z,4.19
2019-03-06T08:41:04.882Z,4.40
2019-03-06T08:42:01.351Z,4.50
2019-03-06T08:43:01.339Z,4.30
2019-03-06T08:44:01.331Z,4.69
2019-03-06T08:45:01.320Z,4.40
2019-03-06T08:46:01.302Z,4.00
2019-03-06T08:47:01.290Z,4.59
2019-03-06T08:48:01.286Z,4.50
2019-03-06T08:49:01.277Z,4.59
2019-03-06T08:50:01.263Z,4.30
2019-03-06T08:51:01.250Z,5.59
2019-03-06T08:52:01.234Z,4.30
2019-03-06T08:53:01.226Z,3.90
2019-03-06T08:54:01.213Z,4.09
2019-03-06T08:55:01.202Z,4.30
2019-03-06T08:56:01.194Z,4.19
2019-03-06T08:57:01.183Z,3.79
2019-03-06T08:58:01.168Z,4.00
2019-03-06T08:59:01.156Z,4.00
2019-03-06T09:00:01.145Z,4.09
2019-03-06T09:01:01.133Z,4.50
2019-03-06T09:02:01.335Z,4.40
2019-03-06T09:03:01.113Z,4.90
2019-03-06T09:04:01.100Z,4.40
2019-03-06T09:05:01.091Z,4.30
2019-03-06T09:06:01.077Z,4.40
2019-03-06T09:07:01.069Z,4.40
2019-03-06T09:08:01.057Z,4.80
2019-03-06T09:09:02.265Z,4.19
2019-03-06T09:10:01.040Z,4.59
2019-03-06T09:11:03.014Z,4.50
2019-03-06T09:12:01.018Z,4.80
2019-03-06T09:13:01.006Z,3.79
2019-03-06T09:14:00.993Z,5.59
2019-03-06T09:15:00.987Z,4.69
2019-03-06T09:16:00.966Z,4.19
2019-03-06T09:17:00.970Z,4.09
2019-03-06T09:18:08.907Z,3.90
2019-03-06T09:19:25.414Z,3.79
2019-03-06T09:20:34.978Z,3.90
2019-03-06T09:21:49.870Z,5.50
2019-03-06T09:22:49.857Z,5.50
2019-03-06T09:23:49.841Z,3.59
2019-03-06T09:24:49.842Z,4.00
2019-03-06T09:25:49.829Z,4.00
2019-03-06T09:26:49.816Z,4.09
2019-03-06T09:27:49.803Z,4.09
2019-03-06T09:28:49.785Z,3.59
2019-03-06T09:29:49.782Z,4.30
2019-03-06T09:30:49.765Z,6.00
2019-03-06T09:31:49.753Z,3.79
2019-03-06T09:32:49.741Z,4.69
2019-03-06T09:33:49.728Z,3.90
2019-03-06T09:34:49.724Z,3.79
2019-03-06T09:35:49.711Z,4.19
2019-03-06T09:36:49.699Z,4.09
2019-03-06T09:37:49.686Z,4.00
2019-03-06T09:38:49.679Z,4.50
2019-03-06T09:39:49.669Z,4.00
2019-03-06T09:40:49.654Z,3.20
2019-03-06T09:41:49.644Z,3.20
2019-03-06T09:42:49.630Z,3.40
2019-03-06T09:43:49.624Z,3.40
2019-03-06T09:44:49.616Z,3.50
2019-03-06T09:45:49.596Z,3.20
2019-03-06T09:46:49.590Z,3.09
2019-03-06T09:47:49.575Z,3.50
2019-03-06T09:48:49.570Z,3.29
2019-03-06T09:49:49.559Z,3.59
2019-03-06T09:50:49.541Z,3.90
2019-03-06T09:51:49.532Z,3.29
2019-03-06T09:52:49.522Z,3.40
2019-03-06T09:53:49.510Z,4.09
2019-03-06T09:54:49.502Z,4.90
2019-03-06T09:55:49.504Z,3.90
2019-03-06T09:56:49.522Z,4.19
2019-03-06T09:57:49.513Z,4.40
2019-03-06T09:58:49.456Z,3.90
2019-03-06T09:59:49.458Z,3.70
2019-03-06T10:00:49.460Z,4.09
2019-03-06T10:01:49.467Z,3.59
2019-03-06T10:02:49.406Z,3.40
2019-03-06T10:03:49.398Z,3.59
2019-03-06T10:04:49.386Z,3.59
2019-03-06T10:05:49.375Z,3.59
2019-03-06T10:06:49.366Z,3.40
2019-03-06T10:07:49.354Z,3.29
2019-03-06T10:08:49.338Z,3.09
2019-03-06T10:09:58.707Z,3.70
2019-03-06T10:11:17.172Z,3.90
2019-03-06T10:12:13.778Z,3.70
2019-03-06T10:13:13.767Z,3.50
2019-03-06T10:14:13.756Z,3.50
2019-03-06T10:15:13.744Z,3.59
2019-03-06T10:16:13.739Z,3.70
2019-03-06T10:17:13.726Z,3.29
2019-03-06T10:18:13.716Z,3.90
2019-03-06T10:19:13.702Z,3.59
2019-03-06T10:20:13.692Z,3.00
2019-03-06T10:21:13.679Z,3.50
2019-03-06T10:22:13.672Z,3.40
2019-03-06T10:23:13.655Z,3.09
2019-03-06T10:24:13.653Z,2.20
2019-03-06T10:25:13.636Z,3.29
2019-03-06T10:26:13.635Z,3.59
2019-03-06T10:27:13.614Z,3.70
2019-03-06T10:28:13.607Z,3.70
2019-03-06T10:29:13.595Z,3.40
2019-03-06T10:30:13.620Z,3.00
2019-03-06T10:31:13.575Z,3.09
2019-03-06T10:32:13.587Z,3.29
2019-03-06T10:33:13.560Z,2.79
2019-03-06T10:34:13.538Z,3.09
2019-03-06T10:35:13.529Z,2.70
2019-03-06T10:36:13.516Z,3.09
2019-03-06T10:37:13.507Z,3.29
2019-03-06T10:38:16.680Z,3.50
2019-03-06T10:39:13.485Z,3.50
2019-03-06T10:40:13.476Z,3.40
2019-03-06T10:41:13.461Z,3.20
2019-03-06T10:42:13.450Z,3.00
2019-03-06T10:43:13.441Z,7.09
2019-03-06T10:44:13.428Z,3.29
2019-03-06T10:45:13.419Z,3.50
2019-03-06T10:46:13.414Z,3.00
2019-03-06T10:47:13.398Z,3.09
2019-03-06T10:48:13.389Z,3.40
2019-03-06T10:49:13.381Z,3.20
2019-03-06T10:50:13.366Z,3.09
2019-03-06T10:51:13.362Z,3.09
2019-03-06T10:52:13.342Z,3.59
2019-03-06T10:53:13.334Z,3.29
2019-03-06T10:54:13.325Z,3.50
2019-03-06T10:55:13.309Z,3.50
2019-03-06T10:56:13.314Z,3.50
2019-03-06T10:57:13.287Z,3.59
2019-03-06T10:58:13.280Z,3.40
2019-03-06T10:59:13.270Z,4.19
2019-03-06T11:00:13.254Z,3.70
2019-03-06T11:01:13.253Z,4.00
2019-03-06T11:02:13.233Z,15.80
2019-03-06T11:03:13.365Z,4.50
2019-03-06T11:04:13.214Z,4.30
2019-03-06T11:05:13.202Z,4.19
2019-03-06T11:06:13.191Z,4.50
2019-03-06T11:07:13.179Z,4.19
2019-03-06T11:08:13.169Z,4.69
2019-03-06T11:09:13.163Z,4.40
2019-03-06T11:10:13.147Z,4.09
2019-03-06T11:11:13.143Z,4.19
2019-03-06T11:12:13.126Z,4.19
2019-03-06T11:13:13.113Z,4.30
2019-03-06T11:14:13.104Z,4.30
2019-03-06T11:15:13.159Z,4.19
2019-03-06T11:16:13.091Z,3.20
2019-03-06T11:17:13.073Z,3.90
2019-03-06T11:18:13.058Z,4.19
2019-03-06T11:19:13.058Z,3.79
2019-03-06T11:20:13.060Z,3.79
2019-03-06T11:21:13.027Z,3.90
2019-03-06T11:22:13.021Z,3.40
2019-03-06T11:23:13.008Z,3.00
2019-03-06T11:24:12.994Z,2.70
2019-03-06T11:25:12.985Z,3.90
2019-03-06T11:26:12.981Z,3.90
2019-03-06T11:27:12.966Z,3.29
2019-03-06T11:28:12.949Z,3.09
2019-03-06T11:29:12.938Z,3.40
2019-03-06T11:30:12.933Z,3.00
2019-03-06T11:31:12.923Z,3.09
2019-03-06T11:32:12.907Z,3.00
2019-03-06T11:33:12.900Z,2.59
2019-03-06T11:34:12.885Z,3.09
2019-03-06T11:35:12.872Z,3.20
2019-03-06T11:36:12.866Z,3.09
2019-03-06T11:37:12.850Z,2.00
2019-03-06T11:38:12.840Z,2.90
2019-03-06T11:39:12.826Z,2.79
2019-03-06T11:40:12.818Z,2.79
2019-03-06T11:41:12.808Z,2.90
2019-03-06T11:42:12.795Z,2.70
2019-03-06T11:43:12.786Z,2.29
2019-03-06T11:44:12.774Z,2.79
2019-03-06T11:45:12.759Z,2.90
2019-03-06T11:46:12.754Z,2.50
2019-03-06T11:47:12.737Z,2.70
2019-03-06T11:48:12.738Z,3.09
2019-03-06T11:49:12.717Z,2.50
2019-03-06T11:50:12.707Z,2.59
2019-03-06T11:51:12.695Z,2.50
2019-03-06T11:52:12.686Z,2.50
2019-03-06T11:53:12.672Z,2.90
2019-03-06T11:54:12.666Z,2.50
2019-03-06T11:55:12.650Z,2.40
2019-03-06T11:56:12.636Z,2.29
2019-03-06T11:57:12.626Z,2.70
2019-03-06T11:58:12.808Z,2.59
2019-03-06T11:59:12.608Z,2.79
2019-03-06T12:00:14.782Z,2.70
2019-03-06T12:01:12.582Z,2.59
2019-03-06T12:02:12.577Z,2.50
2019-03-06T12:03:12.566Z,2.70
2019-03-06T12:04:12.548Z,2.50
2019-03-06T12:05:12.536Z,2.20
2019-03-06T12:06:12.531Z,2.50
2019-03-06T12:07:12.517Z,2.50
2019-03-06T12:08:12.506Z,2.70
2019-03-06T12:09:12.492Z,2.50
2019-03-06T12:10:12.484Z,2.29
2019-03-06T12:11:12.469Z,2.40
2019-03-06T12:12:12.457Z,2.40
2019-03-06T12:13:12.446Z,2.09
2019-03-06T12:14:12.435Z,2.29
2019-03-06T12:15:12.427Z,2.40
2019-03-06T12:16:12.421Z,2.40
2019-03-06T12:17:12.408Z,2.29
2019-03-06T12:18:12.393Z,2.40
2019-03-06T12:19:12.380Z,2.29
2019-03-06T12:20:12.376Z,2.70
2019-03-06T12:21:12.360Z,2.50
2019-03-06T12:22:12.347Z,2.90
2019-03-06T12:23:12.337Z,2.59
2019-03-06T12:24:13.158Z,2.50
2019-03-06T12:25:12.315Z,2.59
2019-03-06T12:26:12.303Z,2.40
2019-03-06T12:27:12.292Z,2.50
2019-03-06T12:28:12.282Z,2.70
2019-03-06T12:29:12.270Z,2.29
2019-03-06T12:30:12.262Z,2.29
2019-03-06T12:31:12.251Z,2.50
2019-03-06T12:32:12.238Z,2.40
2019-03-06T12:33:12.227Z,2.50
2019-03-06T12:34:12.224Z,2.79
2019-03-06T12:35:12.204Z,2.20
2019-03-06T12:36:12.223Z,2.50
2019-03-06T12:37:12.181Z,2.50
2019-03-06T12:38:12.170Z,2.09
2019-03-06T12:39:12.165Z,2.40
2019-03-06T12:40:14.690Z,2.20
2019-03-06T12:41:12.770Z,2.40
2019-03-06T12:42:14.560Z,2.29
2019-03-06T12:43:12.115Z,2.29
2019-03-06T12:44:12.105Z,2.29
2019-03-06T12:45:12.096Z,2.29
2019-03-06T12:46:12.089Z,2.40
2019-03-06T12:47:12.074Z,2.50
2019-03-06T12:48:12.058Z,2.29
2019-03-06T12:49:12.050Z,2.09
2019-03-06T12:50:12.042Z,2.50
2019-03-06T12:51:12.025Z,2.29
2019-03-06T12:52:12.014Z,2.29
2019-03-06T12:53:12.951Z,2.50
2019-03-06T12:54:12.031Z,2.40
2019-03-06T12:55:11.982Z,2.40
2019-03-06T12:56:11.971Z,2.20
2019-03-06T12:57:11.965Z,2.50
2019-03-06T12:58:11.950Z,1.79
2019-03-06T12:59:11.946Z,1.90
2019-03-06T13:00:11.925Z,1.79
2019-03-06T13:01:11.919Z,1.90
2019-03-06T13:02:11.906Z,1.79
2019-03-06T13:03:11.890Z,1.79
2019-03-06T13:04:11.894Z,1.39
2019-03-06T13:05:11.876Z,1.79
2019-03-06T13:06:11.858Z,2.00
2019-03-06T13:07:11.852Z,2.09
2019-03-06T13:08:19.434Z,1.90
